Time;durP1;ratioP1;P1;durP2;ratioP2;P2;SDS_P1;SDS_P2;PMS_P1;PMS_P2;Temp;Humidity;BMP_temperature;BMP_pressure;BME280_temperature;BME280_humidity;BME280_pressure;Samples;Min_cycle;Max_cycle;Signal;HPM_P1;HPM_P2
2021/03/25 00:01:32;;;;;;;17.83;4.18;;;19.70;95.50;;;;;;5076064;28;20028;-70
2021/03/25 00:03:59;;;;;;;23.98;4.28;;;19.60;96.10;;;;;;5098333;28;20496;-67
2021/03/25 00:06:28;;;;;;;17.33;3.35;;;19.40;95.40;;;;;;5086246;28;20025;-67
2021/03/25 00:08:56;;;;;;;18.38;3.72;;;19.50;95.50;;;;;;5074839;28;20040;-69
2021/03/25 00:11:23;;;;;;;19.02;4.50;;;19.60;96.30;;;;;;5077971;28;20190;-68
2021/03/25 00:13:50;;;;;;;18.75;4.85;;;19.80;97.20;;;;;;5074577;28;20036;-67
2021/03/25 00:16:28;;;;;;;16.52;3.63;;;19.60;97.70;;;;;;5072912;28;20020;-68
2021/03/25 00:18:55;;;;;;;13.15;3.47;;;19.80;94.30;;;;;;5083745;28;20037;-70
2021/03/25 00:21:22;;;;;;;17.92;3.65;;;19.60;93.60;;;;;;5097095;28;20028;-68
2021/03/25 00:23:50;;;;;;;13.55;2.63;;;19.60;94.90;;;;;;5095598;28;20494;-68
2021/03/25 00:26:17;;;;;;;13.65;2.85;;;19.70;92.30;;;;;;5081153;28;20039;-69
2021/03/25 00:28:44;;;;;;;16.67;3.17;;;19.60;94.40;;;;;;5101509;28;20043;-68
2021/03/25 00:31:11;;;;;;;15.00;3.17;;;19.90;94.10;;;;;;5096570;28;20475;-69
2021/03/25 00:33:37;;;;;;;19.67;3.53;;;19.90;93.90;;;;;;5078663;28;20123;-67
2021/03/25 00:36:04;;;;;;;16.48;2.65;;;19.90;92.90;;;;;;5096507;28;20063;-66
2021/03/25 00:38:31;;;;;;;10.95;2.88;;;19.60;92.30;;;;;;5079297;28;20103;-65
2021/03/25 00:41:02;;;;;;;13.82;3.38;;;19.40;91.50;;;;;;5082483;28;20116;-67
2021/03/25 00:43:29;;;;;;;13.15;2.80;;;19.40;92.70;;;;;;5065899;28;20032;-65
2021/03/25 00:45:56;;;;;;;18.00;2.92;;;19.60;93.30;;;;;;5063130;28;20206;-66
2021/03/25 00:48:25;;;;;;;15.15;2.88;;;19.40;94.10;;;;;;5067156;28;20469;-65
2021/03/25 00:50:58;;;;;;;21.80;3.28;;;19.50;93.30;;;;;;5063612;28;20024;-69
2021/03/25 00:53:28;;;;;;;19.77;4.20;;;19.60;93.50;;;;;;5077059;28;20040;-64
2021/03/25 00:55:55;;;;;;;22.17;3.28;;;19.60;93.40;;;;;;5081969;28;20024;-64
2021/03/25 00:58:22;;;;;;;26.25;3.00;;;19.60;93.30;;;;;;5076345;28;20050;-65
2021/03/25 01:00:49;;;;;;;10.40;2.90;;;19.60;93.10;;;;;;5076852;28;20024;-65
2021/03/25 01:03:21;;;;;;;10.07;2.22;;;19.50;91.10;;;;;;5076097;28;20059;-66
2021/03/25 01:05:48;;;;;;;12.85;3.28;;;19.50;91.80;;;;;;5058994;28;20707;-67
2021/03/25 01:08:15;;;;;;;11.43;2.63;;;19.40;90.60;;;;;;5074356;28;20029;-66
2021/03/25 01:10:55;;;;;;;9.02;2.17;;;19.40;90.80;;;;;;5071806;28;20073;-66
2021/03/25 01:13:35;;;;;;;10.73;2.35;;;19.20;91.40;;;;;;5054247;28;20809;-65
2021/03/25 01:16:04;;;;;;;10.50;2.58;;;19.10;91.00;;;;;;5079067;28;20044;-64
2021/03/25 01:18:31;;;;;;;13.65;2.42;;;18.90;91.50;;;;;;5078249;28;20094;-65
2021/03/25 01:20:58;;;;;;;19.83;2.28;;;18.80;91.60;;;;;;5080863;28;20035;-66
2021/03/25 01:23:25;;;;;;;11.07;1.75;;;18.80;90.50;;;;;;5055361;28;20032;-66
2021/03/25 01:25:52;;;;;;;11.25;2.35;;;18.70;90.20;;;;;;5072625;28;20032;-65
2021/03/25 01:28:19;;;;;;;10.07;2.10;;;18.40;91.40;;;;;;5074601;28;20044;-65
2021/03/25 01:30:47;;;;;;;8.07;3.00;;;18.40;91.10;;;;;;5075406;28;20516;-65
2021/03/25 01:33:17;;;;;;;10.63;2.30;;;18.40;91.60;;;;;;5073270;28;20494;-66
2021/03/25 01:35:44;;;;;;;7.20;1.70;;;18.30;91.20;;;;;;5062432;28;20351;-66
2021/03/25 01:38:16;;;;;;;9.40;1.65;;;18.20;90.80;;;;;;5076111;28;20028;-66
2021/03/25 01:40:46;;;;;;;12.55;2.50;;;18.10;91.00;;;;;;5080405;28;20062;-65
2021/03/25 01:43:26;;;;;;;14.70;2.80;;;18.10;91.50;;;;;;5044923;28;20026;-64
2021/03/25 01:46:19;;;;;;;17.13;2.63;;;18.00;92.20;;;;;;5077557;28;20036;-65
2021/03/25 01:48:49;;;;;;;12.95;1.65;;;17.80;92.20;;;;;;5074516;28;20040;-66
2021/03/25 01:51:33;;;;;;;11.93;1.83;;;17.70;92.80;;;;;;5075718;28;20021;-65
2021/03/25 01:54:40;;;;;;;8.13;2.42;;;17.50;93.00;;;;;;5080204;28;20031;-65
2021/03/25 01:57:21;;;;;;;14.88;2.45;;;17.30;93.70;;;;;;5073507;28;20420;-65
2021/03/25 02:00:25;;;;;;;20.65;2.60;;;17.10;94.40;;;;;;5080741;28;21055;-66
2021/03/25 02:03:00;;;;;;;11.38;2.03;;;17.00;94.10;;;;;;5078486;28;20066;-64
2021/03/25 02:05:30;;;;;;;11.30;2.40;;;16.70;94.80;;;;;;5075275;28;20048;-66
2021/03/25 02:08:17;;;;;;;10.98;2.05;;;16.60;95.80;;;;;;5075785;28;20111;-65
2021/03/25 02:11:15;;;;;;;15.60;2.17;;;16.30;96.30;;;;;;5062807;28;20043;-66
2021/03/25 02:13:51;;;;;;;12.87;2.17;;;16.40;96.30;;;;;;5058812;28;20093;-65
2021/03/25 02:16:38;;;;;;;11.95;2.67;;;16.20;96.60;;;;;;5074143;28;20021;-68
2021/03/25 02:19:23;;;;;;;18.20;1.98;;;16.00;97.40;;;;;;5070148;28;20175;-66
2021/03/25 02:22:07;;;;;;;12.45;2.13;;;15.90;97.30;;;;;;5072473;28;20436;-65
2021/03/25 02:24:44;;;;;;;14.27;2.85;;;15.60;97.50;;;;;;5083517;28;20049;-67
2021/03/25 02:27:54;;;;;;;16.60;2.22;;;15.40;97.60;;;;;;5061047;28;20479;-65
2021/03/25 02:30:36;;;;;;;17.75;2.72;;;15.30;97.40;;;;;;5082447;28;20032;-64
2021/03/25 02:33:06;;;;;;;9.18;2.20;;;15.40;97.50;;;;;;5067326;28;20039;-64
2021/03/25 02:35:47;;;;;;;6.43;1.60;;;15.20;97.60;;;;;;5084933;28;20553;-66
2021/03/25 02:38:38;;;;;;;10.98;2.03;;;15.10;97.70;;;;;;5089957;28;20028;-65
2021/03/25 02:41:20;;;;;;;13.88;2.30;;;15.00;98.40;;;;;;5075117;28;20043;-64
2021/03/25 02:43:56;;;;;;;14.38;2.97;;;14.90;98.90;;;;;;5075097;28;20111;-65
2021/03/25 02:46:50;;;;;;;12.75;2.55;;;14.80;98.70;;;;;;5091599;28;20024;-65
2021/03/25 02:49:32;;;;;;;12.95;3.50;;;14.80;98.40;;;;;;5091639;28;20040;-64
2021/03/25 02:52:54;;;;;;;13.20;2.50;;;14.80;98.30;;;;;;5071339;28;20028;-65
2021/03/25 02:55:21;;;;;;;9.13;2.63;;;14.70;98.50;;;;;;5054613;28;20040;-64
2021/03/25 02:57:53;;;;;;;13.95;3.22;;;14.70;98.80;;;;;;5080702;28;20028;-65
2021/03/25 03:00:29;;;;;;;23.33;3.20;;;14.70;99.40;;;;;;5080577;28;20032;-65
2021/03/25 03:03:21;;;;;;;13.50;3.05;;;14.60;99.30;;;;;;5078251;28;20031;-64
2021/03/25 03:06:10;;;;;;;11.27;2.92;;;14.70;99.20;;;;;;5070135;28;20036;-66
2021/03/25 03:08:46;;;;;;;8.05;1.98;;;14.60;98.90;;;;;;5063093;28;20044;-65
2021/03/25 03:11:54;;;;;;;15.20;2.33;;;14.50;99.20;;;;;;5082180;28;20038;-64
2021/03/25 03:14:52;;;;;;;9.70;2.38;;;14.40;99.10;;;;;;5082158;28;20043;-65
2021/03/25 03:17:25;;;;;;;22.77;2.58;;;14.30;99.40;;;;;;5062694;28;20059;-64
2021/03/25 03:20:07;;;;;;;10.32;2.20;;;14.20;99.80;;;;;;5080432;28;20032;-66
2021/03/25 03:22:37;;;;;;;15.85;2.45;;;14.20;99.90;;;;;;5063984;28;20479;-67
2021/03/25 03:25:16;;;;;;;13.73;2.05;;;14.20;99.60;;;;;;5043564;28;20040;-66
2021/03/25 03:27:50;;;;;;;11.90;1.98;;;14.10;99.90;;;;;;5040148;28;20048;-64
2021/03/25 03:30:40;;;;;;;7.63;1.80;;;14.00;99.90;;;;;;5058427;28;20040;-65
2021/03/25 03:33:25;;;;;;;15.45;2.33;;;13.90;99.90;;;;;;5053931;28;20024;-65
2021/03/25 03:36:07;;;;;;;6.70;1.70;;;13.80;99.90;;;;;;5059866;28;20033;-65
2021/03/25 03:39:09;;;;;;;9.73;2.60;;;13.80;99.90;;;;;;5055034;28;20156;-65
2021/03/25 03:42:00;;;;;;;11.35;2.40;;;13.60;99.90;;;;;;5021198;28;20040;-65
2021/03/25 03:44:36;;;;;;;13.98;2.35;;;13.60;99.90;;;;;;5070989;28;20029;-65
2021/03/25 03:47:09;;;;;;;8.00;1.75;;;13.70;99.90;;;;;;5057879;28;20040;-64
2021/03/25 03:50:13;;;;;;;20.92;2.15;;;13.60;99.90;;;;;;5063425;28;20032;-65
2021/03/25 03:52:42;;;;;;;8.85;2.63;;;13.50;99.90;;;;;;5050366;28;20119;-64
2021/03/25 03:55:11;;;;;;;11.27;2.58;;;13.50;99.90;;;;;;5057067;28;20024;-64
2021/03/25 03:58:16;;;;;;;13.82;2.30;;;13.60;99.90;;;;;;5056626;28;20021;-65
2021/03/25 04:00:57;;;;;;;15.05;2.63;;;13.60;99.90;;;;;;5061373;28;20028;-65
2021/03/25 04:04:04;;;;;;;15.85;3.15;;;13.50;99.90;;;;;;5060975;28;20109;-65
2021/03/25 04:06:43;;;;;;;16.45;3.83;;;13.50;99.90;;;;;;4995794;28;20034;-67
2021/03/25 04:09:21;;;;;;;16.48;3.63;;;13.50;99.90;;;;;;4999148;28;20204;-65
2021/03/25 04:12:09;;;;;;;16.60;3.57;;;13.50;99.90;;;;;;5036218;28;20115;-64
2021/03/25 04:14:43;;;;;;;20.15;4.00;;;13.40;99.90;;;;;;5053940;28;20029;-64
2021/03/25 04:17:13;;;;;;;14.75;3.33;;;13.50;99.90;;;;;;5057667;28;20025;-66
2021/03/25 04:19:46;;;;;;;16.85;3.85;;;13.40;99.90;;;;;;5055156;28;20136;-64
2021/03/25 04:22:32;;;;;;;22.48;4.43;;;13.50;99.90;;;;;;5056215;28;20032;-66
2021/03/25 04:25:42;;;;;;;19.25;3.83;;;13.40;99.90;;;;;;5053664;28;20492;-64
2021/03/25 04:28:13;;;;;;;25.60;5.55;;;13.40;99.90;;;;;;5055805;28;20464;-64
2021/03/25 04:30:44;;;;;;;22.92;4.68;;;13.30;99.90;;;;;;5053726;28;20041;-63
2021/03/25 04:33:16;;;;;;;15.43;3.55;;;13.30;99.90;;;;;;5051132;28;20041;-63
2021/03/25 04:35:45;;;;;;;20.83;3.67;;;13.30;99.90;;;;;;5067362;28;20044;-63
2021/03/25 04:38:15;;;;;;;16.58;3.45;;;13.20;99.90;;;;;;5053489;28;20024;-62
2021/03/25 04:40:42;;;;;;;20.33;5.30;;;13.30;99.90;;;;;;5058677;28;20109;-63
2021/03/25 04:43:10;;;;;;;12.82;3.80;;;13.30;99.90;;;;;;5073929;28;20025;-64
2021/03/25 04:46:18;;;;;;;28.35;4.85;;;13.30;99.90;;;;;;5060403;28;20029;-66
2021/03/25 04:48:46;;;;;;;19.60;5.07;;;13.30;99.90;;;;;;5029050;28;20792;-64
2021/03/25 04:51:23;;;;;;;26.33;5.38;;;13.30;99.90;;;;;;5064874;28;20111;-63
2021/03/25 04:53:51;;;;;;;18.17;4.43;;;13.30;99.90;;;;;;5055692;28;20052;-62
2021/03/25 04:56:24;;;;;;;19.70;4.23;;;13.30;99.90;;;;;;5054970;28;20024;-63
2021/03/25 04:59:00;;;;;;;20.88;4.57;;;13.20;99.90;;;;;;5048777;28;20033;-62
2021/03/25 05:01:30;;;;;;;19.83;4.35;;;13.30;99.90;;;;;;5051917;28;20106;-63
2021/03/25 05:04:02;;;;;;;21.58;5.82;;;13.30;99.90;;;;;;5050865;28;20032;-63
2021/03/25 05:06:41;;;;;;;20.13;5.50;;;13.30;99.90;;;;;;5050304;28;20025;-63
2021/03/25 05:09:16;;;;;;;12.27;3.95;;;13.20;99.90;;;;;;5056705;28;20037;-62
2021/03/25 05:11:43;;;;;;;18.38;5.57;;;13.10;99.90;;;;;;5053243;28;20028;-62
2021/03/25 05:14:19;;;;;;;23.73;4.68;;;13.00;99.90;;;;;;5041732;28;20119;-63
2021/03/25 05:17:01;;;;;;;18.48;4.88;;;13.00;99.90;;;;;;5043372;28;20147;-64
2021/03/25 05:20:02;;;;;;;18.83;4.82;;;13.00;99.90;;;;;;5045867;28;20553;-63
2021/03/25 05:23:06;;;;;;;24.55;5.88;;;13.10;99.90;;;;;;5056563;28;20036;-64
2021/03/25 05:25:35;;;;;;;29.00;5.28;;;13.10;99.90;;;;;;5036901;28;20037;-63
2021/03/25 05:28:04;;;;;;;;;;;13.10;99.90;;;;;;5064790;28;20052;-62
2021/03/25 05:30:33;;;;;;;;;;;13.00;99.90;;;;;;5073624;28;19920;-63
2021/03/25 05:33:03;;;;;;;33.47;7.35;;;12.80;99.90;;;;;;5073370;28;19955;-63
2021/03/25 05:35:40;;;;;;;24.63;6.03;;;12.70;99.90;;;;;;5074470;28;20469;-64
2021/03/25 05:38:07;;;;;;;21.27;5.32;;;12.70;99.90;;;;;;5076365;28;20033;-63
2021/03/25 05:40:51;;;;;;;31.42;5.55;;;12.70;99.90;;;;;;5077104;28;20204;-64
2021/03/25 05:43:30;;;;;;;24.80;6.10;;;12.50;99.90;;;;;;5074808;28;20056;-64
2021/03/25 05:46:16;;;;;;;23.58;6.60;;;12.40;99.90;;;;;;5058774;28;20028;-64
2021/03/25 05:49:18;;;;;;;21.80;5.97;;;12.30;99.90;;;;;;5062376;28;20046;-64
2021/03/25 05:52:07;;;;;;;24.85;6.05;;;12.20;99.90;;;;;;5058414;28;20707;-64
2021/03/25 05:55:19;;;;;;;21.38;5.75;;;12.10;99.90;;;;;;5064653;28;20035;-64
2021/03/25 05:58:23;;;;;;;22.38;6.45;;;12.20;99.90;;;;;;5082605;28;20028;-63
2021/03/25 06:01:16;;;;;;;24.80;5.68;;;12.20;99.90;;;;;;5080939;28;20035;-64
2021/03/25 06:04:18;;;;;;;29.58;6.05;;;12.30;99.90;;;;;;4982478;28;20042;-63
2021/03/25 06:07:19;;;;;;;21.13;5.20;;;12.50;99.90;;;;;;5056006;28;20047;-64
2021/03/25 06:10:21;;;;;;;24.15;4.63;;;12.50;99.90;;;;;;5075882;28;20475;-64
2021/03/25 06:13:17;;;;;;;23.67;5.30;;;12.50;99.90;;;;;;5061828;28;20032;-63
2021/03/25 06:16:27;;;;;;;26.20;6.55;;;12.40;99.90;;;;;;5044614;28;20048;-63
2021/03/25 06:19:38;;;;;;;;;;;;;;;;;;;;;
2021/03/25 06:22:33;;;;;;;23.92;6.18;;;12.30;99.90;;;;;;5078600;28;20088;-63
2021/03/25 06:25:42;;;;;;;35.95;7.65;;;12.30;99.90;;;;;;5076291;28;20024;-63
2021/03/25 06:28:44;;;;;;;19.48;6.43;;;12.30;99.90;;;;;;5055218;28;20062;-63
2021/03/25 06:31:33;;;;;;;30.40;5.78;;;12.20;99.90;;;;;;5074553;28;20060;-64
2021/03/25 06:34:17;;;;;;;27.05;6.78;;;12.20;99.90;;;;;;5073248;28;20272;-64
2021/03/25 06:37:07;;;;;;;22.80;5.88;;;12.20;99.90;;;;;;5057590;28;20605;-64
2021/03/25 06:40:06;;;;;;;23.55;7.32;;;12.10;99.90;;;;;;5076006;28;20721;-63
2021/03/25 06:42:45;;;;;;;28.98;6.45;;;12.10;99.90;;;;;;5054884;28;20423;-63
2021/03/25 06:45:17;;;;;;;;;;;12.10;99.90;;;;;;5056793;28;20035;-62
2021/03/25 06:48:12;;;;;;;30.17;6.97;;;12.00;99.90;;;;;;5070600;28;19977;-63
2021/03/25 06:50:42;;;;;;;29.30;6.82;;;12.00;99.90;;;;;;5072228;28;20036;-63
2021/03/25 06:53:32;;;;;;;27.67;7.03;;;12.00;99.90;;;;;;5074306;28;20020;-63
2021/03/25 06:56:11;;;;;;;23.67;5.40;;;11.90;99.90;;;;;;5055598;28;20491;-63
2021/03/25 06:58:53;;;;;;;26.58;5.70;;;11.80;99.90;;;;;;5037229;28;20028;-63
2021/03/25 07:01:37;;;;;;;19.10;5.50;;;11.80;99.90;;;;;;5059344;28;20024;-63
2021/03/25 07:04:26;;;;;;;22.35;6.18;;;11.80;99.90;;;;;;5052381;28;20028;-62
2021/03/25 07:07:03;;;;;;;36.15;7.93;;;11.80;99.90;;;;;;5066995;28;20058;-63
2021/03/25 07:09:37;;;;;;;35.45;7.55;;;11.70;99.90;;;;;;5077265;28;20503;-63
2021/03/25 07:12:07;;;;;;;27.85;7.18;;;11.70;99.90;;;;;;5054329;28;20032;-63
2021/03/25 07:14:41;;;;;;;29.20;6.78;;;11.60;99.90;;;;;;5071666;28;20038;-64
2021/03/25 07:17:13;;;;;;;29.30;6.38;;;11.60;99.90;;;;;;5068857;28;20144;-63
2021/03/25 07:19:48;;;;;;;21.13;6.47;;;11.60;99.90;;;;;;5058971;28;20075;-64
2021/03/25 07:22:55;;;;;;;30.70;6.88;;;11.70;99.90;;;;;;5076172;28;20032;-64
2021/03/25 07:25:47;;;;;;;30.40;6.88;;;11.60;99.90;;;;;;5081175;28;20151;-64
2021/03/25 07:28:48;;;;;;;;;;;;;;;;;;;;;
2021/03/25 07:31:41;;;;;;;31.75;7.30;;;11.70;99.90;;;;;;5016463;28;20411;-64
2021/03/25 07:34:54;;;;;;;31.00;7.70;;;11.60;99.90;;;;;;5039232;28;20036;-63
2021/03/25 07:37:43;;;;;;;29.70;6.18;;;11.70;99.90;;;;;;5041039;28;20025;-62
2021/03/25 07:40:36;;;;;;;30.00;6.78;;;11.60;99.90;;;;;;5039048;28;20025;-63
2021/03/25 07:43:24;;;;;;;34.55;8.55;;;11.60;99.90;;;;;;5039759;28;20420;-63
2021/03/25 07:46:25;;;;;;;43.45;8.00;;;11.60;99.90;;;;;;5040412;28;21024;-63
2021/03/25 07:49:10;;;;;;;40.75;8.57;;;11.60;99.90;;;;;;5033925;28;20398;-62
2021/03/25 07:51:51;;;;;;;23.15;7.35;;;11.60;99.90;;;;;;5035534;28;20033;-63
2021/03/25 07:54:30;;;;;;;26.02;7.45;;;11.60;99.90;;;;;;5033255;28;20045;-64
2021/03/25 07:57:11;;;;;;;38.13;7.13;;;11.60;99.90;;;;;;5034952;28;20099;-63
2021/03/25 07:59:57;;;;;;;34.50;7.30;;;11.60;99.90;;;;;;5031683;28;20037;-64
2021/03/25 08:02:41;;;;;;;31.52;8.63;;;11.70;99.90;;;;;;5034968;28;20653;-63
2021/03/25 08:05:30;;;;;;;51.65;9.50;;;11.70;99.90;;;;;;5034214;28;20859;-63
2021/03/25 08:08:20;;;;;;;35.20;7.95;;;11.60;99.90;;;;;;5032053;28;21909;-63
2021/03/25 08:10:49;;;;;;;37.15;9.80;;;11.70;99.90;;;;;;5023296;28;20068;-63
2021/03/25 08:13:28;;;;;;;39.58;10.02;;;11.70;99.90;;;;;;5031177;28;20589;-64
2021/03/25 08:16:08;;;;;;;;;;;11.70;99.90;;;;;;5034351;28;20113;-63
2021/03/25 08:19:20;;;;;;;41.08;8.65;;;11.70;99.90;;;;;;5034414;28;19924;-63
2021/03/25 08:22:22;;;;;;;34.17;9.50;;;11.70;99.90;;;;;;4996215;28;20115;-62
2021/03/25 08:24:58;;;;;;;39.42;9.57;;;11.70;99.90;;;;;;5031812;28;20111;-63
2021/03/25 08:27:55;;;;;;;39.80;9.65;;;11.70;99.90;;;;;;5035788;28;20029;-64
2021/03/25 08:30:49;;;;;;;46.60;8.98;;;11.70;99.90;;;;;;5071844;28;20136;-63
2021/03/25 08:33:32;;;;;;;46.35;9.93;;;11.70;99.90;;;;;;5072791;28;20028;-63
2021/03/25 08:36:22;;;;;;;41.97;9.57;;;11.70;99.90;;;;;;5074766;28;20032;-64
2021/03/25 08:39:18;;;;;;;52.55;11.75;;;11.70;99.90;;;;;;5075054;28;20431;-63
2021/03/25 08:42:03;;;;;;;57.42;11.93;;;11.70;99.90;;;;;;5019520;28;20384;-64
2021/03/25 08:44:36;;;;;;;52.50;11.77;;;11.80;99.90;;;;;;5073569;28;20035;-64
2021/03/25 08:47:23;;;;;;;53.83;11.32;;;11.70;99.90;;;;;;5056646;28;20028;-63
2021/03/25 08:50:11;;;;;;;41.15;10.00;;;11.70;99.90;;;;;;5072437;28;20058;-63
2021/03/25 08:52:40;;;;;;;57.17;9.35;;;11.70;99.90;;;;;;5072027;28;20105;-63
2021/03/25 08:55:35;;;;;;;51.78;11.13;;;11.70;99.90;;;;;;5057227;28;20070;-63
2021/03/25 08:58:26;;;;;;;45.78;10.38;;;11.60;99.90;;;;;;5069103;28;20044;-63
2021/03/25 09:01:00;;;;;;;41.72;9.88;;;11.50;99.90;;;;;;5053981;28;20759;-63
2021/03/25 09:03:50;;;;;;;57.97;11.10;;;11.50;99.90;;;;;;5050947;28;20522;-62
2021/03/25 09:06:22;;;;;;;50.30;10.90;;;11.50;99.90;;;;;;5072317;28;20037;-61
2021/03/25 09:08:54;;;;;;;56.05;13.27;;;11.50;99.90;;;;;;5073024;28;20027;-62
2021/03/25 09:11:21;;;;;;;50.63;10.05;;;11.50;99.90;;;;;;5073381;28;20039;-62
2021/03/25 09:13:57;;;;;;;52.35;11.10;;;11.50;99.90;;;;;;5070387;28;20013;-62
2021/03/25 09:16:36;;;;;;;45.30;10.40;;;11.50;99.90;;;;;;5051979;28;20769;-61
2021/03/25 09:19:16;;;;;;;42.92;10.32;;;11.40;99.90;;;;;;5053524;28;20537;-61
2021/03/25 09:21:47;;;;;;;38.75;10.35;;;11.40;99.90;;;;;;5070563;28;20036;-63
2021/03/25 09:24:15;;;;;;;33.40;9.00;;;11.40;99.90;;;;;;5052459;28;20030;-63
2021/03/25 09:27:02;;;;;;;43.58;9.77;;;11.40;99.90;;;;;;5072594;28;20182;-61
2021/03/25 09:29:54;;;;;;;33.25;8.05;;;11.40;99.90;;;;;;5071387;28;20476;-61
2021/03/25 09:32:40;;;;;;;38.83;8.85;;;11.40;99.90;;;;;;5060452;28;20032;-62
2021/03/25 09:35:44;;;;;;;37.88;9.50;;;11.30;99.90;;;;;;5052854;28;20070;-62
2021/03/25 09:38:23;;;;;;;35.30;9.77;;;11.20;99.90;;;;;;5050823;28;20032;-62
2021/03/25 09:40:53;;;;;;;37.03;10.35;;;11.20;99.90;;;;;;5071891;28;20644;-63
2021/03/25 09:43:40;;;;;;;33.42;8.00;;;11.20;99.90;;;;;;5055771;28;20609;-62
2021/03/25 09:46:24;;;;;;;27.35;7.82;;;11.20;99.90;;;;;;5049737;28;20073;-62
2021/03/25 09:48:52;;;;;;;42.88;10.10;;;11.20;99.90;;;;;;5071376;28;20032;-61
2021/03/25 09:51:25;;;;;;;38.85;7.97;;;11.30;99.90;;;;;;5072416;28;20028;-62
2021/03/25 09:53:58;;;;;;;35.28;8.35;;;11.30;99.90;;;;;;5053827;28;20122;-62
2021/03/25 09:56:28;;;;;;;54.63;9.75;;;11.30;99.90;;;;;;5071150;28;20036;-62
2021/03/25 09:58:55;;;;;;;34.85;8.30;;;11.30;99.90;;;;;;5069033;28;20571;-62
2021/03/25 10:01:46;;;;;;;36.15;8.32;;;11.30;99.90;;;;;;5054441;28;20032;-61
2021/03/25 10:04:32;;;;;;;42.10;8.30;;;11.30;99.90;;;;;;5054631;28;20066;-62
2021/03/25 10:07:21;;;;;;;34.83;8.93;;;11.40;99.90;;;;;;5071247;28;20047;-61
2021/03/25 10:09:52;;;;;;;33.77;8.07;;;11.40;99.90;;;;;;5050214;28;20387;-62
2021/03/25 10:12:43;;;;;;;41.17;8.93;;;11.50;99.90;;;;;;5071987;28;20336;-62
2021/03/25 10:15:32;;;;;;;34.17;8.20;;;11.50;99.90;;;;;;5071402;28;20233;-63
2021/03/25 10:18:06;;;;;;;54.80;10.43;;;11.50;99.90;;;;;;5072083;28;20037;-62
2021/03/25 10:20:50;;;;;;;40.58;9.93;;;11.50;99.90;;;;;;5071352;28;20043;-63
2021/03/25 10:23:38;;;;;;;39.47;9.10;;;11.50;99.90;;;;;;5070559;28;20036;-61
2021/03/25 10:26:04;;;;;;;44.67;10.75;;;11.50;99.90;;;;;;5072250;28;20028;-62
2021/03/25 10:28:44;;;;;;;46.80;11.18;;;11.40;99.90;;;;;;5072186;28;20059;-61
2021/03/25 10:31:22;;;;;;;48.88;13.13;;;11.50;99.90;;;;;;5054936;28;20035;-62
2021/03/25 10:33:52;;;;;;;43.10;11.20;;;11.40;99.90;;;;;;5071965;28;20112;-62
2021/03/25 10:36:24;;;;;;;33.33;10.65;;;11.40;99.90;;;;;;5070087;28;21288;-64
2021/03/25 10:38:56;;;;;;;39.35;10.55;;;11.40;99.90;;;;;;5071907;28;20032;-62
2021/03/25 10:41:26;;;;;;;48.35;12.30;;;11.40;99.90;;;;;;5071643;28;20967;-62
2021/03/25 10:43:53;;;;;;;51.20;10.80;;;11.40;99.90;;;;;;5052897;28;20075;-63
2021/03/25 10:46:37;;;;;;;44.92;11.70;;;11.30;99.90;;;;;;5071767;28;20025;-63
2021/03/25 10:49:09;;;;;;;36.47;11.15;;;11.30;99.90;;;;;;5069282;28;20031;-62
2021/03/25 10:51:41;;;;;;;48.45;13.55;;;11.30;99.90;;;;;;5070944;28;20569;-62
2021/03/25 10:54:31;;;;;;;42.65;10.13;;;11.20;99.90;;;;;;5071551;28;20096;-62
2021/03/25 10:57:15;;;;;;;38.97;10.25;;;11.30;99.90;;;;;;5070475;28;20036;-63
2021/03/25 11:00:00;;;;;;;43.78;12.65;;;11.30;99.90;;;;;;5057158;28;20028;-62
2021/03/25 11:02:29;;;;;;;41.10;12.68;;;11.40;99.90;;;;;;5075648;28;20578;-62
2021/03/25 11:05:04;;;;;;;;;;;11.40;99.90;;;;;;5074374;28;20028;-63
2021/03/25 11:07:40;;;;;;;34.88;11.60;;;11.50;99.90;;;;;;5076509;28;19919;-61
2021/03/25 11:10:20;;;;;;;42.08;10.52;;;11.40;99.90;;;;;;5075012;28;20044;-62
2021/03/25 11:12:59;;;;;;;42.40;11.07;;;11.40;99.90;;;;;;5074913;28;20024;-63
2021/03/25 11:15:36;;;;;;;48.17;9.93;;;11.40;99.90;;;;;;5075679;28;20121;-63
2021/03/25 11:18:21;;;;;;;44.03;11.13;;;11.50;99.90;;;;;;5056134;28;20038;-62
2021/03/25 11:20:49;;;;;;;42.83;10.13;;;11.50;99.90;;;;;;5073326;28;20081;-63
2021/03/25 11:23:22;;;;;;;41.70;10.60;;;11.50;99.90;;;;;;5074271;28;20188;-63
2021/03/25 11:26:01;;;;;;;36.10;10.52;;;11.50;99.90;;;;;;5075504;28;20028;-63
2021/03/25 11:28:30;;;;;;;34.63;9.98;;;11.50;99.90;;;;;;5075564;28;20109;-63
2021/03/25 11:31:28;;;;;;;36.92;10.00;;;11.50;99.90;;;;;;5074911;28;20503;-62
2021/03/25 11:33:56;;;;;;;31.87;9.47;;;11.50;99.90;;;;;;5057082;28;20024;-62
2021/03/25 11:36:45;;;;;;;34.50;10.35;;;11.50;99.90;;;;;;5073849;28;20027;-62
2021/03/25 11:39:25;;;;;;;42.58;12.18;;;11.50;99.90;;;;;;5076005;28;20081;-64
2021/03/25 11:41:55;;;;;;;35.35;9.10;;;11.50;99.90;;;;;;5074731;28;20111;-62
2021/03/25 11:44:51;;;;;;;41.65;9.90;;;11.40;99.90;;;;;;5074317;28;20017;-61
2021/03/25 11:47:32;;;;;;;37.70;9.95;;;11.40;99.90;;;;;;5044670;28;20032;-62
2021/03/25 11:49:59;;;;;;;36.63;9.80;;;11.40;99.90;;;;;;5072500;28;20035;-63
2021/03/25 11:52:25;;;;;;;36.88;10.40;;;11.30;99.90;;;;;;5073726;28;20029;-63
2021/03/25 11:55:02;;;;;;;27.42;9.20;;;11.30;99.90;;;;;;5072092;28;20070;-63
2021/03/25 11:57:37;;;;;;;42.15;11.45;;;11.30;99.90;;;;;;5072124;28;20093;-63
2021/03/25 12:00:12;;;;;;;32.85;9.85;;;11.30;99.90;;;;;;5052964;28;20032;-63
2021/03/25 12:02:41;;;;;;;35.85;9.63;;;11.20;99.90;;;;;;5069006;28;20020;-62
2021/03/25 12:05:19;;;;;;;;;;;11.20;99.90;;;;;;5071745;28;20035;-62
2021/03/25 12:07:46;;;;;;;46.20;10.93;;;11.20;99.90;;;;;;5072707;28;20382;-63
2021/03/25 12:10:13;;;;;;;40.63;10.63;;;11.10;99.90;;;;;;5052655;28;20044;-62
2021/03/25 12:12:42;;;;;;;46.03;11.05;;;11.10;99.90;;;;;;5053398;28;20024;-62
2021/03/25 12:15:09;;;;;;;34.65;10.68;;;11.10;99.90;;;;;;5037742;28;20032;-63
2021/03/25 12:17:39;;;;;;;35.65;10.13;;;11.10;99.90;;;;;;5073422;28;22030;-63
2021/03/25 12:20:09;;;;;;;42.92;10.52;;;11.10;99.90;;;;;;5071486;28;20042;-62
2021/03/25 12:22:40;;;;;;;39.10;10.35;;;11.10;99.90;;;;;;5072808;28;20024;-63
2021/03/25 12:25:07;;;;;;;43.30;9.85;;;11.10;99.90;;;;;;5071945;28;20031;-62
2021/03/25 12:27:34;;;;;;;41.80;11.02;;;11.10;99.90;;;;;;5072765;28;20032;-62
2021/03/25 12:30:01;;;;;;;39.50;10.02;;;11.20;99.90;;;;;;5075297;28;20054;-63
2021/03/25 12:32:30;;;;;;;33.20;9.70;;;11.20;99.90;;;;;;5073221;28;21855;-63
2021/03/25 12:34:56;;;;;;;;;;;11.30;99.90;;;;;;5074600;28;20028;-64
2021/03/25 12:37:27;;;;;;;27.10;9.38;;;11.20;99.90;;;;;;5072479;28;20478;-63
2021/03/25 12:39:54;;;;;;;34.47;10.82;;;11.30;99.90;;;;;;5052485;28;20027;-63
2021/03/25 12:42:21;;;;;;;35.13;11.10;;;11.20;99.90;;;;;;5053708;28;20035;-64
2021/03/25 12:44:48;;;;;;;38.42;11.25;;;11.20;99.90;;;;;;5073217;28;20027;-61
2021/03/25 12:47:14;;;;;;;38.20;10.98;;;11.20;99.90;;;;;;5054430;28;20031;-63
2021/03/25 12:49:41;;;;;;;33.70;10.38;;;11.20;99.90;;;;;;5054901;28;20047;-62
2021/03/25 12:52:08;;;;;;;38.05;10.05;;;11.20;99.90;;;;;;5074101;28;20101;-62
2021/03/25 12:54:35;;;;;;;34.85;8.82;;;11.20;99.90;;;;;;5073084;28;20032;-62
2021/03/25 12:57:04;;;;;;;36.85;9.88;;;11.10;99.90;;;;;;5074716;28;20028;-63
2021/03/25 12:59:31;;;;;;;31.83;10.02;;;11.10;99.90;;;;;;5071822;28;20505;-62
2021/03/25 13:01:57;;;;;;;40.03;10.35;;;11.20;99.90;;;;;;5071297;28;20028;-62
2021/03/25 13:04:24;;;;;;;45.00;11.63;;;11.10;99.90;;;;;;5070672;28;20086;-62
2021/03/25 13:06:51;;;;;;;36.03;10.63;;;11.10;99.90;;;;;;5072198;28;20020;-61
2021/03/25 13:09:18;;;;;;;30.38;9.48;;;11.10;99.90;;;;;;5072533;28;20600;-63
2021/03/25 13:11:45;;;;;;;36.80;10.13;;;11.00;99.90;;;;;;5071363;28;20143;-61
2021/03/25 13:14:11;;;;;;;36.42;10.95;;;11.00;99.90;;;;;;5072268;28;20736;-61
2021/03/25 13:16:38;;;;;;;30.23;9.35;;;11.00;99.90;;;;;;5051585;28;20028;-62
2021/03/25 13:19:05;;;;;;;35.58;11.85;;;11.00;99.90;;;;;;5071280;28;20502;-62
2021/03/25 13:21:31;;;;;;;36.50;8.93;;;11.00;99.90;;;;;;5074016;28;20047;-62
2021/03/25 13:23:58;;;;;;;37.55;10.13;;;11.10;99.90;;;;;;5072604;28;20024;-63
2021/03/25 13:26:25;;;;;;;35.63;8.98;;;11.00;99.90;;;;;;5070629;28;20071;-63
2021/03/25 13:28:51;;;;;;;31.23;8.63;;;11.10;99.90;;;;;;5052670;28;20121;-63
2021/03/25 13:31:18;;;;;;;37.35;8.70;;;11.10;99.90;;;;;;5070885;28;20166;-62
2021/03/25 13:33:45;;;;;;;36.63;7.97;;;11.10;99.90;;;;;;5073767;28;20104;-63
2021/03/25 13:36:11;;;;;;;38.25;8.57;;;11.30;99.90;;;;;;5073450;28;20020;-63
2021/03/25 13:38:39;;;;;;;42.45;9.15;;;11.30;99.90;;;;;;5072061;28;20111;-64
2021/03/25 13:41:06;;;;;;;31.55;8.65;;;11.20;99.90;;;;;;5071955;28;20040;-64